createdAt,value
2022-10-11T00:00:46.646Z,12.95
2022-10-11T00:03:14.438Z,9.30
2022-10-11T00:05:43.839Z,13.70
2022-10-11T00:08:11.565Z,9.20
2022-10-11T00:10:39.009Z,10.90
2022-10-11T00:13:08.467Z,13.07
2022-10-11T00:15:35.965Z,9.98
2022-10-11T00:18:05.529Z,12.63
2022-10-11T00:20:33.084Z,16.42
2022-10-11T00:23:00.556Z,8.10
2022-10-11T00:25:28.428Z,10.82
2022-10-11T00:27:55.864Z,12.27
2022-10-11T00:30:24.613Z,11.73
2022-10-11T00:32:52.137Z,12.02
2022-10-11T00:35:19.659Z,12.07
2022-10-11T00:37:47.150Z,7.15
2022-10-11T00:40:17.584Z,11.40
2022-10-11T00:42:45.199Z,12.13
2022-10-11T00:45:52.130Z,8.13
2022-10-11T00:48:27.510Z,12.00
2022-10-11T00:50:56.563Z,15.38
2022-10-11T00:53:24.258Z,12.88
2022-10-11T00:55:57.016Z,11.27
2022-10-11T00:58:24.944Z,13.45
2022-10-11T01:00:53.971Z,9.07
2022-10-11T01:03:27.772Z,11.95
2022-10-11T01:05:56.488Z,11.55
2022-10-11T01:08:24.101Z,14.70
2022-10-11T01:10:52.774Z,13.30
2022-10-11T01:13:31.138Z,7.45
2022-10-11T01:16:08.915Z,4.93
2022-10-11T01:18:49.674Z,8.32
2022-10-11T01:21:31.843Z,11.47
2022-10-11T01:24:39.658Z,8.27
2022-10-11T01:27:37.921Z,11.65
2022-10-11T01:30:19.371Z,10.60
2022-10-11T01:32:54.898Z,9.77
2022-10-11T01:35:29.229Z,14.03
2022-10-11T01:38:00.606Z,8.25
2022-10-11T01:40:32.745Z,15.55
2022-10-11T01:43:02.597Z,8.77
2022-10-11T01:45:33.703Z,18.23
2022-10-11T01:48:08.896Z,15.20
2022-10-11T01:50:44.209Z,8.75
2022-10-11T01:53:41.212Z,9.02
2022-10-11T01:56:22.600Z,10.80
2022-10-11T01:59:04.524Z,7.88
2022-10-11T02:01:46.401Z,12.02
2022-10-11T02:04:22.348Z,15.18
2022-10-11T02:06:58.320Z,7.70
2022-10-11T02:09:32.383Z,10.50
2022-10-11T02:12:07.438Z,7.35
2022-10-11T02:14:40.157Z,7.17
2022-10-11T02:17:13.758Z,6.45
2022-10-11T02:19:45.142Z,8.43
2022-10-11T02:22:19.118Z,8.57
2022-10-11T02:24:50.512Z,9.10
2022-10-11T02:27:21.588Z,11.70
2022-10-11T02:29:50.822Z,7.82
2022-10-11T02:32:21.843Z,10.95
2022-10-11T02:34:53.238Z,7.43
2022-10-11T02:37:26.810Z,7.82
2022-10-11T02:39:57.733Z,8.13
2022-10-11T02:42:30.627Z,5.63
2022-10-11T02:45:01.513Z,10.57
2022-10-11T02:47:32.352Z,8.43
2022-10-11T02:50:00.899Z,23.40
2022-10-11T02:52:28.315Z,13.00
2022-10-11T02:54:55.738Z,7.65
2022-10-11T02:57:23.255Z,9.43
2022-10-11T02:59:50.653Z,13.48
2022-10-11T03:02:18.067Z,13.63
2022-10-11T03:04:46.890Z,16.40
2022-10-11T03:07:14.708Z,15.60
2022-10-11T03:09:42.400Z,5.43
2022-10-11T03:12:09.880Z,3.97
2022-10-11T03:14:37.340Z,3.53
2022-10-11T03:17:31.058Z,3.20
2022-10-11T03:19:54.016Z,5.63
2022-10-11T03:22:22.143Z,14.52
2022-10-11T03:24:49.621Z,4.00
2022-10-11T03:27:17.040Z,5.30
2022-10-11T03:29:44.462Z,6.95
2022-10-11T03:32:11.911Z,4.45
2022-10-11T03:34:39.350Z,9.73
2022-10-11T03:37:08.176Z,3.83
2022-10-11T03:39:35.830Z,4.43
2022-10-11T03:42:03.253Z,2.50
2022-10-11T03:44:30.648Z,3.55
2022-10-11T03:46:58.063Z,4.38
2022-10-11T03:49:25.748Z,19.17
2022-10-11T03:51:53.185Z,6.03
2022-10-11T03:54:21.974Z,4.05
2022-10-11T03:56:49.625Z,3.40
2022-10-11T03:59:17.129Z,0.98
2022-10-11T04:01:44.612Z,6.45
2022-10-11T04:04:12.124Z,4.00
2022-10-11T04:06:39.586Z,3.00
2022-10-11T04:09:07.050Z,2.03
2022-10-11T04:11:36.088Z,3.53
2022-10-11T04:14:03.515Z,8.50
2022-10-11T04:16:30.937Z,4.15
2022-10-11T04:18:58.347Z,3.70
2022-10-11T04:21:25.760Z,3.80
2022-10-11T04:23:53.188Z,4.30
2022-10-11T04:26:20.622Z,7.63
2022-10-11T04:28:49.429Z,4.03
2022-10-11T04:31:16.953Z,5.50
2022-10-11T04:33:44.384Z,3.40
2022-10-11T04:36:11.814Z,3.25
2022-10-11T04:38:39.204Z,8.93
2022-10-11T04:41:07.835Z,3.72
2022-10-11T04:43:35.336Z,2.90
2022-10-11T04:46:04.590Z,3.97
2022-10-11T04:48:32.356Z,5.75
2022-10-11T04:50:59.828Z,4.75
2022-10-11T04:53:27.292Z,3.70
2022-10-11T04:56:00.928Z,9.27
2022-10-11T04:58:28.879Z,4.63
2022-10-11T05:00:56.528Z,5.80
2022-10-11T05:03:26.294Z,7.65
2022-10-11T05:05:54.153Z,9.23
2022-10-11T05:08:23.062Z,5.90
2022-10-11T05:10:56.664Z,7.15
2022-10-11T05:13:24.170Z,6.22
2022-10-11T05:15:51.681Z,3.28
2022-10-11T05:18:19.199Z,8.98
2022-10-11T05:20:48.221Z,4.90
2022-10-11T05:23:15.714Z,6.65
2022-10-11T05:25:43.206Z,5.35
2022-10-11T05:28:10.670Z,6.50
2022-10-11T05:30:38.155Z,3.08
2022-10-11T05:33:05.628Z,4.35
2022-10-11T05:35:33.083Z,6.18
2022-10-11T05:38:01.884Z,5.35
2022-10-11T05:40:29.332Z,8.07
2022-10-11T05:42:56.744Z,10.32
2022-10-11T05:45:24.200Z,14.63
2022-10-11T05:47:51.629Z,23.85
2022-10-11T05:50:24.017Z,15.90
2022-10-11T05:52:51.844Z,9.85
2022-10-11T05:55:20.674Z,20.05
2022-10-11T05:57:48.109Z,13.85
2022-10-11T06:00:16.163Z,19.30
2022-10-11T06:02:43.564Z,11.57
2022-10-11T06:05:11.107Z,25.23
2022-10-11T06:07:38.854Z,26.10
2022-10-11T06:10:07.501Z,12.68
2022-10-11T06:12:36.375Z,13.60
2022-10-11T06:15:04.468Z,8.85
2022-10-11T06:17:31.902Z,13.23
2022-10-11T06:19:59.301Z,30.35
2022-10-11T06:22:27.405Z,47.92
2022-10-11T06:24:54.804Z,34.42
2022-10-11T06:27:22.413Z,44.85
2022-10-11T06:29:51.268Z,76.90
2022-10-11T06:32:18.732Z,73.03
2022-10-11T06:34:46.137Z,68.18
2022-10-11T06:37:13.764Z,79.05
2022-10-11T06:39:41.282Z,37.35
2022-10-11T06:42:08.720Z,27.77
2022-10-11T06:44:36.140Z,27.92
2022-10-11T06:47:04.990Z,10.32
2022-10-11T06:49:32.424Z,13.90
2022-10-11T06:51:59.839Z,18.00
2022-10-11T06:54:27.508Z,5.95
2022-10-11T06:56:54.939Z,8.38
2022-10-11T06:59:22.386Z,2.88
2022-10-11T07:01:49.832Z,9.25
2022-10-11T07:04:18.640Z,3.90
2022-10-11T07:06:46.068Z,7.15
2022-10-11T07:09:13.522Z,5.25
2022-10-11T07:11:40.971Z,3.42
2022-10-11T07:14:08.588Z,4.70
2022-10-11T07:16:36.944Z,3.38
2022-10-11T07:19:06.830Z,3.47
2022-10-11T07:21:36.598Z,6.90
2022-10-11T07:24:04.622Z,15.10
2022-10-11T07:26:38.843Z,4.78
2022-10-11T07:29:08.279Z,5.13
2022-10-11T07:31:36.982Z,7.63
2022-10-11T07:34:04.404Z,29.65
2022-10-11T07:36:31.868Z,10.52
2022-10-11T07:39:00.760Z,10.43
2022-10-11T07:41:28.172Z,6.25
2022-10-11T07:43:55.596Z,7.53
2022-10-11T07:46:23.218Z,14.05
2022-10-11T07:48:50.974Z,7.30
2022-10-11T07:51:20.879Z,7.57
2022-10-11T07:53:50.413Z,4.35
2022-10-11T07:56:21.621Z,6.70
2022-10-11T07:58:52.212Z,9.15
2022-10-11T08:01:20.647Z,3.93
2022-10-11T08:03:48.542Z,6.22
2022-10-11T08:06:18.431Z,7.93
2022-10-11T08:08:45.858Z,10.00
2022-10-11T08:11:22.419Z,9.88
2022-10-11T08:13:50.027Z,8.90
2022-10-11T08:16:17.637Z,8.95
2022-10-11T08:18:45.496Z,12.13
2022-10-11T08:21:15.464Z,8.68
2022-10-11T08:23:43.356Z,10.45
2022-10-11T08:26:10.877Z,8.67
2022-10-11T08:28:39.816Z,9.52
2022-10-11T08:31:07.766Z,9.73
2022-10-11T08:33:35.224Z,12.15
2022-10-11T08:36:05.540Z,19.60
2022-10-11T08:38:33.483Z,13.83
2022-10-11T08:41:02.378Z,13.30
2022-10-11T08:43:37.323Z,11.77
2022-10-11T08:46:09.195Z,14.40
2022-10-11T08:48:40.522Z,17.08
2022-10-11T08:51:16.922Z,9.70
2022-10-11T08:53:50.050Z,12.85
2022-10-11T08:56:18.414Z,13.38
2022-10-11T08:58:51.014Z,10.60
2022-10-11T09:01:23.603Z,12.27
2022-10-11T09:03:52.341Z,7.50
2022-10-11T09:06:29.432Z,6.97
2022-10-11T09:09:08.460Z,10.68
2022-10-11T09:11:47.278Z,7.30
2022-10-11T09:14:35.526Z,8.27
2022-10-11T09:17:11.301Z,10.17
2022-10-11T09:19:58.170Z,6.45
2022-10-11T09:22:34.760Z,8.85
2022-10-11T09:25:21.979Z,5.90
2022-10-11T09:28:03.609Z,4.30
2022-10-11T09:30:32.367Z,6.17
2022-10-11T09:33:11.290Z,11.70
2022-10-11T09:35:42.325Z,5.78
2022-10-11T09:38:27.238Z,12.35
2022-10-11T09:41:08.560Z,7.72
2022-10-11T09:43:36.127Z,6.23
2022-10-11T09:46:04.354Z,6.40
2022-10-11T09:48:39.942Z,6.85
2022-10-11T09:51:14.077Z,5.15
2022-10-11T09:54:00.219Z,7.85
2022-10-11T09:56:29.677Z,9.73
2022-10-11T09:59:29.110Z,7.07
2022-10-11T10:02:23.013Z,4.75
2022-10-11T10:05:05.740Z,4.78
2022-10-11T10:07:35.059Z,5.88
2022-10-11T10:10:27.819Z,4.20
2022-10-11T10:12:56.350Z,8.27
2022-10-11T10:15:24.999Z,9.25
2022-10-11T10:17:53.922Z,6.75
2022-10-11T10:20:25.910Z,7.70
2022-10-11T10:22:53.916Z,8.40
2022-10-11T10:25:25.843Z,3.78
2022-10-11T10:28:01.490Z,11.50
2022-10-11T10:30:34.629Z,7.10
2022-10-11T10:33:06.878Z,6.40
2022-10-11T10:35:41.423Z,4.93
2022-10-11T10:38:22.835Z,3.35
2022-10-11T10:40:54.942Z,4.88
2022-10-11T10:43:25.797Z,4.72
2022-10-11T10:46:06.727Z,5.25
2022-10-11T10:49:12.030Z,4.47
2022-10-11T10:51:41.154Z,6.53
2022-10-11T10:54:19.589Z,6.78
2022-10-11T10:56:53.017Z,10.52
2022-10-11T10:59:37.760Z,5.30
2022-10-11T11:02:35.530Z,8.77
2022-10-11T11:05:09.411Z,4.00
2022-10-11T11:07:44.898Z,5.82
2022-10-11T11:10:17.847Z,4.80
2022-10-11T11:12:50.556Z,7.82
2022-10-11T11:15:31.249Z,11.60
2022-10-11T11:18:10.832Z,5.63
2022-10-11T11:21:01.240Z,10.45
2022-10-11T11:23:38.953Z,6.88
2022-10-11T11:26:14.212Z,8.23
2022-10-11T11:28:54.246Z,6.23
2022-10-11T11:31:40.986Z,3.03
2022-10-11T11:34:21.340Z,8.80
2022-10-11T11:36:52.162Z,7.75
2022-10-11T11:39:25.448Z,5.20
2022-10-11T11:41:56.712Z,7.67
2022-10-11T11:44:30.327Z,8.43
2022-10-11T11:47:02.324Z,5.35
2022-10-11T11:49:35.048Z,7.68
2022-10-11T11:52:04.062Z,11.73
2022-10-11T11:54:49.340Z,8.43
2022-10-11T11:57:26.532Z,7.88
2022-10-11T12:00:01.059Z,5.35
2022-10-11T12:02:39.739Z,10.40
2022-10-11T12:05:08.348Z,8.00
2022-10-11T12:07:52.889Z,6.63
2022-10-11T12:10:29.664Z,7.75
2022-10-11T12:13:09.199Z,6.28
2022-10-11T12:15:37.082Z,5.78
2022-10-11T12:18:13.480Z,5.07
2022-10-11T12:20:42.739Z,3.90
2022-10-11T12:23:44.999Z,5.63
2022-10-11T12:26:42.733Z,8.93
2022-10-11T12:29:42.313Z,5.47
2022-10-11T12:32:51.819Z,5.82
2022-10-11T12:35:42.371Z,10.63
2022-10-11T12:38:19.954Z,5.75
2022-10-11T12:40:48.869Z,6.43
2022-10-11T12:43:37.099Z,7.50
2022-10-11T12:46:43.501Z,10.40
2022-10-11T12:49:28.917Z,9.37
2022-10-11T12:52:01.019Z,5.32
2022-10-11T12:54:50.653Z,6.88
2022-10-11T12:57:47.304Z,12.55
2022-10-11T13:00:23.590Z,4.82
2022-10-11T13:02:51.265Z,10.20
2022-10-11T13:05:24.082Z,13.77
2022-10-11T13:07:52.543Z,10.30
2022-10-11T13:10:25.665Z,7.00
2022-10-11T13:12:54.888Z,6.72
2022-10-11T13:15:24.858Z,5.43
2022-10-11T13:17:58.840Z,7.38
2022-10-11T13:20:28.875Z,7.20
2022-10-11T13:22:57.708Z,9.20
2022-10-11T13:25:27.138Z,9.52
2022-10-11T13:27:56.489Z,9.77
2022-10-11T13:30:29.406Z,13.80
2022-10-11T13:32:57.711Z,5.68
2022-10-11T13:35:31.579Z,7.07
2022-10-11T13:37:59.446Z,10.68
2022-10-11T13:40:27.970Z,7.43
2022-10-11T13:42:56.565Z,11.27
2022-10-11T13:45:27.577Z,4.97
2022-10-11T13:47:55.977Z,6.75
2022-10-11T13:50:31.545Z,8.02
2022-10-11T13:53:01.367Z,10.43
2022-10-11T13:55:33.128Z,5.60
2022-10-11T13:58:03.300Z,5.75
2022-10-11T14:00:35.155Z,10.68
2022-10-11T14:03:06.490Z,10.45
2022-10-11T14:05:37.582Z,7.23
2022-10-11T14:08:08.357Z,9.40
2022-10-11T14:10:36.178Z,12.30
2022-10-11T14:13:08.092Z,11.00
2022-10-11T14:15:38.866Z,6.72
2022-10-11T14:18:32.468Z,10.23
2022-10-11T14:21:19.808Z,8.27
2022-10-11T14:23:48.051Z,7.10
2022-10-11T14:26:18.855Z,11.00
2022-10-11T14:28:46.775Z,11.10
2022-10-11T14:31:15.565Z,9.27
2022-10-11T14:33:43.001Z,7.68
2022-10-11T14:36:10.447Z,13.32
2022-10-11T14:38:37.857Z,10.65
2022-10-11T14:41:05.287Z,9.82
2022-10-11T14:43:32.687Z,9.73
2022-10-11T14:46:00.087Z,11.23
2022-10-11T14:48:53.799Z,11.27
2022-10-11T14:51:22.076Z,12.52
2022-10-11T14:53:49.595Z,8.60
2022-10-11T14:56:21.350Z,9.57
2022-10-11T14:58:49.387Z,8.10
2022-10-11T15:01:18.147Z,7.55
2022-10-11T15:03:46.932Z,9.65
2022-10-11T15:06:18.772Z,10.02
2022-10-11T15:08:46.500Z,7.60
2022-10-11T15:11:16.785Z,10.77
2022-10-11T15:13:44.305Z,9.23
2022-10-11T15:16:13.352Z,10.95
2022-10-11T15:18:41.019Z,9.18
2022-10-11T15:21:13.924Z,9.53
2022-10-11T15:23:41.335Z,10.43
2022-10-11T15:26:10.871Z,16.63
2022-10-11T15:28:38.564Z,14.13
2022-10-11T15:31:06.273Z,10.68
2022-10-11T15:33:33.663Z,8.47
2022-10-11T15:36:01.312Z,7.85
2022-10-11T15:38:30.096Z,10.73
2022-10-11T15:40:57.530Z,5.32
2022-10-11T15:43:25.337Z,11.90
2022-10-11T15:45:52.834Z,9.37
2022-10-11T15:48:22.497Z,14.45
2022-10-11T15:50:51.332Z,7.82
2022-10-11T15:53:20.703Z,7.85
2022-10-11T15:55:52.023Z,9.65
2022-10-11T15:58:21.363Z,7.83
2022-10-11T16:00:50.735Z,12.20
2022-10-11T16:03:19.145Z,11.27
2022-10-11T16:05:46.552Z,13.35
2022-10-11T16:08:14.191Z,9.27
2022-10-11T16:10:42.552Z,7.00
2022-10-11T16:13:12.721Z,10.52
2022-10-11T16:15:41.603Z,6.75
2022-10-11T16:18:11.502Z,15.18
2022-10-11T16:20:39.964Z,9.45
2022-10-11T16:23:07.735Z,12.90
2022-10-11T16:25:35.975Z,10.85
2022-10-11T16:28:04.113Z,6.35
2022-10-11T16:30:32.845Z,9.63
2022-10-11T16:33:00.526Z,13.70
2022-10-11T16:35:32.424Z,9.07
2022-10-11T16:38:01.008Z,13.05
2022-10-11T16:40:29.971Z,8.07
2022-10-11T16:42:57.712Z,10.10
2022-10-11T16:45:25.216Z,11.10
2022-10-11T16:47:53.974Z,11.27
2022-10-11T16:50:21.560Z,11.65
2022-10-11T16:52:48.952Z,12.27
2022-10-11T16:55:16.660Z,12.70
2022-10-11T16:57:44.036Z,14.75
2022-10-11T17:00:13.668Z,9.97
2022-10-11T17:02:41.074Z,11.98
2022-10-11T17:05:10.323Z,10.77
2022-10-11T17:07:37.774Z,13.13
2022-10-11T17:10:06.178Z,9.13
2022-10-11T17:12:37.020Z,11.07
2022-10-11T17:15:05.687Z,12.93
2022-10-11T17:17:33.115Z,14.07
2022-10-11T17:20:02.140Z,8.90
2022-10-11T17:22:30.886Z,11.68
2022-10-11T17:25:00.179Z,10.30
2022-10-11T17:27:27.633Z,12.85
2022-10-11T17:29:55.056Z,18.35
2022-10-11T17:32:22.489Z,24.63
2022-10-11T17:34:49.893Z,23.60
2022-10-11T17:37:18.156Z,27.70
2022-10-11T17:39:47.070Z,21.83
2022-10-11T17:42:14.516Z,21.80
2022-10-11T17:44:42.003Z,21.30
2022-10-11T17:47:09.412Z,21.23
2022-10-11T17:49:36.926Z,14.33
2022-10-11T17:52:04.432Z,15.23
2022-10-11T17:54:32.169Z,14.98
2022-10-11T17:57:00.996Z,18.02
2022-10-11T17:59:28.742Z,10.73
2022-10-11T18:01:56.154Z,13.77
2022-10-11T18:04:26.799Z,17.35
2022-10-11T18:06:54.940Z,10.25
2022-10-11T18:09:24.513Z,11.88
2022-10-11T18:11:52.313Z,12.55
2022-10-11T18:14:21.117Z,29.40
2022-10-11T18:16:48.708Z,28.75
2022-10-11T18:19:16.299Z,35.05
2022-10-11T18:21:43.817Z,17.90
2022-10-11T18:24:16.219Z,14.73
2022-10-11T18:26:44.597Z,15.57
2022-10-11T18:29:13.094Z,17.42
2022-10-11T18:31:42.207Z,15.07
2022-10-11T18:34:11.093Z,11.75
2022-10-11T18:36:39.312Z,16.10
2022-10-11T18:39:08.850Z,12.37
2022-10-11T18:41:38.691Z,9.10
2022-10-11T18:44:08.434Z,10.20
2022-10-11T18:46:36.621Z,14.55
2022-10-11T18:49:05.484Z,11.57
2022-10-11T18:51:34.739Z,17.93
2022-10-11T18:54:02.256Z,17.08
2022-10-11T18:56:31.208Z,14.77
2022-10-11T18:58:59.980Z,11.52
2022-10-11T19:01:30.023Z,19.85
2022-10-11T19:03:59.438Z,10.90
2022-10-11T19:06:30.668Z,10.57
2022-10-11T19:09:01.465Z,10.18
2022-10-11T19:11:29.520Z,17.40
2022-10-11T19:13:57.925Z,8.88
2022-10-11T19:16:27.177Z,11.93
2022-10-11T19:18:54.745Z,12.80
2022-10-11T19:21:23.085Z,14.00
2022-10-11T19:23:52.560Z,11.02
2022-10-11T19:26:21.743Z,12.25
2022-10-11T19:28:54.747Z,11.80
2022-10-11T19:31:22.300Z,14.05
2022-10-11T19:33:49.995Z,13.75
2022-10-11T19:36:18.246Z,12.98
2022-10-11T19:38:48.142Z,14.25
2022-10-11T19:41:18.740Z,10.30
2022-10-11T19:43:46.687Z,17.08
2022-10-11T19:46:27.375Z,17.55
2022-10-11T19:49:03.824Z,14.13
2022-10-11T19:51:34.671Z,18.40
2022-10-11T19:54:03.611Z,19.50
2022-10-11T19:56:34.326Z,13.75
2022-10-11T19:59:02.656Z,14.02
2022-10-11T20:01:31.701Z,17.70
2022-10-11T20:04:02.127Z,16.42
2022-10-11T20:06:35.871Z,15.60
2022-10-11T20:11:55.886Z,6.80
2022-10-11T20:14:23.478Z,8.70
2022-10-11T20:16:51.928Z,8.82
2022-10-11T20:19:19.586Z,9.15
2022-10-11T20:21:48.247Z,6.10
2022-10-11T20:24:15.656Z,7.60
2022-10-11T20:26:43.082Z,10.48
2022-10-11T20:29:11.802Z,11.10
2022-10-11T20:31:40.649Z,6.85
2022-10-11T20:34:08.259Z,10.32
2022-10-11T20:36:36.514Z,6.75
2022-10-11T20:39:05.588Z,7.28
2022-10-11T20:41:36.796Z,15.40
2022-10-11T20:44:05.093Z,6.35
2022-10-11T20:46:35.451Z,10.77
2022-10-11T20:49:05.305Z,7.35
2022-10-11T20:51:34.361Z,10.00
2022-10-11T20:54:04.062Z,8.25
2022-10-11T20:56:32.056Z,8.95
2022-10-11T20:58:59.594Z,8.25
2022-10-11T21:01:28.843Z,9.70
2022-10-11T21:03:59.809Z,11.10
2022-10-11T21:06:27.570Z,13.82
2022-10-11T21:08:55.729Z,9.18
2022-10-11T21:11:25.855Z,8.40
2022-10-11T21:13:55.432Z,10.82
2022-10-11T21:16:22.885Z,7.38
2022-10-11T21:18:51.585Z,5.88
2022-10-11T21:21:20.940Z,10.23
2022-10-11T21:23:48.418Z,10.70
2022-10-11T21:26:18.220Z,8.77
2022-10-11T21:28:47.192Z,7.80
2022-10-11T21:31:17.295Z,10.43
2022-10-11T21:33:45.244Z,7.60
2022-10-11T21:36:15.715Z,9.45
2022-10-11T21:38:44.795Z,6.78
2022-10-11T21:41:14.212Z,11.98
2022-10-11T21:43:42.082Z,15.88
2022-10-11T21:46:11.196Z,11.30
2022-10-11T21:48:38.651Z,14.23
2022-10-11T21:51:06.660Z,7.38
2022-10-11T21:53:34.299Z,9.13
2022-10-11T21:56:03.069Z,9.90
2022-10-11T21:58:30.511Z,11.02
2022-10-11T22:00:57.985Z,9.45
2022-10-11T22:03:26.496Z,7.90
2022-10-11T22:05:53.904Z,9.05
2022-10-11T22:08:21.328Z,12.43
2022-10-11T22:10:55.052Z,7.93
2022-10-11T22:13:24.211Z,12.27
2022-10-11T22:15:51.820Z,13.98
2022-10-11T22:18:19.255Z,11.10
2022-10-11T22:20:46.934Z,15.00
2022-10-11T22:23:14.448Z,7.45
2022-10-11T22:25:42.116Z,6.60
2022-10-11T22:28:09.837Z,9.13
2022-10-11T22:30:38.643Z,6.82
2022-10-11T22:33:06.108Z,10.20
2022-10-11T22:35:37.520Z,7.15
2022-10-11T22:38:06.545Z,5.28
2022-10-11T22:40:34.124Z,6.47
2022-10-11T22:43:01.539Z,7.45
2022-10-11T22:45:28.953Z,6.35
2022-10-11T22:47:57.758Z,6.90
2022-10-11T22:50:25.203Z,7.50
2022-10-11T22:52:52.612Z,11.07
2022-10-11T22:55:20.409Z,6.97
2022-10-11T22:57:47.885Z,8.50
2022-10-11T23:00:15.760Z,6.95
2022-10-11T23:02:43.453Z,10.65
2022-10-11T23:05:12.613Z,7.97
2022-10-11T23:07:40.149Z,6.43
2022-10-11T23:10:08.419Z,5.85
2022-10-11T23:12:35.852Z,9.45
2022-10-11T23:15:03.272Z,9.07
2022-10-11T23:17:30.680Z,8.52
2022-10-11T23:19:58.105Z,8.52
2022-10-11T23:22:26.967Z,6.78
2022-10-11T23:24:54.409Z,10.20
2022-10-11T23:27:21.821Z,12.77
2022-10-11T23:29:49.275Z,8.27
2022-10-11T23:32:16.727Z,9.00
2022-10-11T23:34:44.131Z,13.57
2022-10-11T23:37:11.535Z,7.68
2022-10-11T23:39:40.281Z,7.78
2022-10-11T23:42:07.668Z,7.65
2022-10-11T23:44:35.058Z,6.35
2022-10-11T23:47:02.788Z,6.97
2022-10-11T23:49:30.163Z,5.63
2022-10-11T23:51:57.567Z,5.13
2022-10-11T23:54:25.051Z,10.60
2022-10-11T23:56:53.831Z,10.07
2022-10-11T23:59:21.240Z,8.30
